Ana Sayfa
METAR-TAF:

METAR-TAF

Havaalanları :

Cumberland, Maryland, Amerika Birleşik Devletleri

Enlem: 39-36-56N, Boylam: 078-45-39W, yükseklik: 236 m

Güncel hava durumu gözlemi

Rapor saat 05:40 UTC de 31 dakika önce yapıldı.
Rüzgar batı/kuzeybatıdan 10 kt ve 17 kt'a kadar ani rüzgarlar, batı ve kuzey/kuzeybatı arasında değişken
Sıcaklık 3°C
Nem 70%
Basınç 1014 hPa
Görüş mesafesi: 16.1 km
2300 ft yükseklikte çok bulutlu

METAR: KCBE 280540Z AUTO 30010G17KT 270V330 10SM OVC023 03/M02 A2993 RMK AO2 T00251021

Saat: 01:11 (06:11 UTC)


TAF: eksik

4.000'den fazla havaalanı için hava durumu gözlemleri ve tahminleri (METAR ve TAF raporları).

Kullanılabilir istasyonlar harita üzerinde sarı ve kırmızı noktalarla gösterilir.

İstasyonun adını görmek için fareyi noktanın üzerinde gezdirin.

Sonrasında hava gözlem ve tahminlerini görmek için tıklayın.

Haritayı değiştirmek için: yaklaştırmak için siyah artı işaretli yeşil düğmeye ve uzaklaştırmak için de eksi işaretli düğmeye hızla tıklayın; bitişik haritalar için yeşil okları kullanın.


METAR-TAF: